createdAt,value
2018-10-17T00:03:19.411Z,6.37
2018-10-17T00:09:10.307Z,3.8
2018-10-17T00:15:01.238Z,3.96
2018-10-17T00:20:52.089Z,4.15
2018-10-17T00:26:42.989Z,3.83
2018-10-17T00:32:33.896Z,5.25
2018-10-17T00:38:24.789Z,5.16
2018-10-17T00:44:15.649Z,6.18
2018-10-17T00:50:06.537Z,7.47
2018-10-17T00:55:57.443Z,8.21
2018-10-17T01:01:48.329Z,8.01
2018-10-17T01:07:39.194Z,6.86
2018-10-17T01:13:30.106Z,7.45
2018-10-17T01:19:20.982Z,7.57
2018-10-17T01:25:11.892Z,7.33
2018-10-17T01:31:02.877Z,7.23
2018-10-17T01:36:53.644Z,5.76
2018-10-17T01:42:44.573Z,6.44
2018-10-17T01:48:35.416Z,6.19
2018-10-17T01:54:26.304Z,5.91
2018-10-17T02:00:17.232Z,6.48
2018-10-17T02:06:08.106Z,6.28
2018-10-17T02:11:58.957Z,6.85
2018-10-17T02:17:49.885Z,7.25
2018-10-17T02:23:40.747Z,5.58
2018-10-17T02:29:31.657Z,6.26
2018-10-17T02:35:22.516Z,6.35
2018-10-17T02:41:13.557Z,8.66
2018-10-17T02:47:04.454Z,5.6
2018-10-17T02:52:55.233Z,5.38
2018-10-17T02:58:46.076Z,4.68
2018-10-17T03:04:37.060Z,5.01
2018-10-17T03:10:27.872Z,4.57
2018-10-17T03:16:18.742Z,4.05
2018-10-17T03:22:09.649Z,3.73
2018-10-17T03:28:00.645Z,2.99
2018-10-17T03:33:51.387Z,3.19
2018-10-17T03:39:42.377Z,3.62
2018-10-17T03:45:33.172Z,4.01
2018-10-17T03:51:24.069Z,3.97
2018-10-17T03:57:14.958Z,3.31
2018-10-17T04:03:05.918Z,5.25
2018-10-17T04:08:56.676Z,4.28
2018-10-17T04:14:47.585Z,3.65
2018-10-17T04:20:38.449Z,4.34
2018-10-17T04:26:29.382Z,4.69
2018-10-17T04:32:20.215Z,3.1
2018-10-17T04:38:11.110Z,3
2018-10-17T04:44:01.986Z,3.5
2018-10-17T04:49:52.917Z,3.59
2018-10-17T04:55:43.737Z,4.03
2018-10-17T05:01:34.615Z,3.22
2018-10-17T05:07:25.647Z,4.14
2018-10-17T05:13:16.443Z,3.32
2018-10-17T05:19:07.359Z,3.8
2018-10-17T05:24:58.147Z,4.33
2018-10-17T05:30:49.010Z,3.87
2018-10-17T05:36:39.929Z,3.91
2018-10-17T05:42:30.796Z,4.1
2018-10-17T05:48:21.682Z,4.11
2018-10-17T05:54:12.571Z,4.44
2018-10-17T06:00:03.692Z,7.26
2018-10-17T06:05:54.327Z,4.86
2018-10-17T06:11:45.165Z,3.92
2018-10-17T06:17:40.791Z,3.54
2018-10-17T06:29:18.043Z,4.57
2018-10-17T06:35:08.939Z,6.03
2018-10-17T06:40:59.620Z,4.57
2018-10-17T06:46:50.461Z,7.97
2018-10-17T06:52:41.356Z,8.65
2018-10-17T06:58:32.213Z,10.59
2018-10-17T07:04:23.119Z,6.84
2018-10-17T07:10:13.976Z,4.24
2018-10-17T07:16:04.857Z,8.57
2018-10-17T07:21:55.750Z,6.92
2018-10-17T07:27:46.607Z,5.76
2018-10-17T07:33:37.522Z,6.24
2018-10-17T07:39:28.372Z,6.98
2018-10-17T07:45:19.253Z,6.85
2018-10-17T07:51:10.154Z,8.3
2018-10-17T07:57:01.023Z,28.15
2018-10-17T08:02:51.859Z,26.4
2018-10-17T08:08:42.787Z,15.69
2018-10-17T08:14:33.635Z,10.9
2018-10-17T08:20:29.141Z,6.4
2018-10-17T08:26:15.420Z,21.58
2018-10-17T08:32:06.349Z,8.52
2018-10-17T08:37:57.259Z,5.84
2018-10-17T08:43:48.109Z,10.5
2018-10-17T08:49:38.944Z,24.66
2018-10-17T08:55:29.842Z,27.29
2018-10-17T09:01:20.732Z,26.43
2018-10-17T09:07:11.692Z,9.28
2018-10-17T09:13:02.507Z,16.81
2018-10-17T09:18:53.410Z,13.99
2018-10-17T09:24:44.320Z,18.34
2018-10-17T09:30:35.319Z,27.33
2018-10-17T09:36:26.138Z,20.38
2018-10-17T09:42:17.101Z,22.44
2018-10-17T09:48:07.862Z,17.14
2018-10-17T09:53:58.770Z,10.42
2018-10-17T09:59:49.656Z,9.02
2018-10-17T10:05:40.558Z,6.34
2018-10-17T10:11:31.464Z,7.54
2018-10-17T10:17:22.398Z,18.14
2018-10-17T10:23:13.337Z,19.87
2018-10-17T10:29:04.171Z,15.7
2018-10-17T10:34:55.031Z,16.59
2018-10-17T10:40:46.059Z,17.83
2018-10-17T10:46:36.847Z,23.54
2018-10-17T10:52:27.758Z,19.81
2018-10-17T10:58:18.824Z,11.2
2018-10-17T11:04:09.574Z,7.05
2018-10-17T11:10:00.465Z,10
2018-10-17T11:15:51.414Z,8.82
2018-10-17T11:21:42.327Z,5.54
2018-10-17T11:27:33.199Z,11.5
2018-10-17T11:33:24.100Z,10.19
2018-10-17T11:39:15.075Z,5.82
2018-10-17T11:45:05.929Z,9.07
2018-10-17T11:50:56.827Z,6.96
2018-10-17T11:56:47.703Z,9.6
2018-10-17T12:02:38.599Z,10.88
2018-10-17T12:08:29.541Z,7.77
2018-10-17T12:14:20.463Z,6.09
2018-10-17T12:20:11.314Z,6.14
2018-10-17T12:26:02.256Z,4.25
2018-10-17T12:31:53.159Z,6.18
2018-10-17T12:37:44.063Z,10.46
2018-10-17T12:43:34.968Z,8.2
2018-10-17T12:49:25.845Z,11.28
2018-10-17T12:55:16.828Z,11.82
2018-10-17T13:01:07.783Z,4.95
2018-10-17T13:06:58.726Z,10.74
2018-10-17T13:12:49.472Z,13.65
2018-10-17T13:18:40.426Z,9.74
2018-10-17T13:24:31.340Z,11.15
2018-10-17T13:30:22.195Z,8.95
2018-10-17T13:36:13.198Z,6.23
2018-10-17T13:42:04.115Z,5.02
2018-10-17T13:47:54.950Z,5.53
2018-10-17T13:53:45.814Z,5.24
2018-10-17T13:59:36.764Z,5.45
2018-10-17T14:05:27.658Z,5.99
2018-10-17T14:11:18.593Z,5.98
2018-10-17T14:17:09.482Z,6.08
2018-10-17T14:23:00.383Z,7.76
2018-10-17T14:28:51.289Z,7.62
2018-10-17T14:34:42.193Z,7.14
2018-10-17T14:40:33.157Z,8.98
2018-10-17T14:46:24.001Z,8.33
2018-10-17T14:52:14.938Z,8.46
2018-10-17T14:58:05.821Z,11.51
2018-10-17T15:03:56.779Z,9.58
2018-10-17T15:09:47.679Z,7.23
2018-10-17T15:15:38.616Z,6.86
2018-10-17T15:21:29.521Z,7.47
2018-10-17T15:27:20.398Z,8.19
2018-10-17T15:33:11.356Z,5.68
2018-10-17T15:39:02.217Z,5.88
2018-10-17T15:44:53.109Z,9.05
2018-10-17T15:50:44.029Z,10.28
2018-10-17T15:56:34.979Z,8.21
2018-10-17T16:02:25.897Z,7.11
2018-10-17T16:08:16.775Z,7.54
2018-10-17T16:14:07.749Z,7.47
2018-10-17T16:19:58.651Z,5.11
2018-10-17T16:25:49.513Z,10.66
2018-10-17T16:31:40.405Z,8.69
2018-10-17T16:37:31.290Z,6.19
2018-10-17T16:43:22.204Z,3.5
2018-10-17T16:49:13.142Z,3.85
2018-10-17T16:55:04.581Z,3.85
2018-10-17T17:00:54.912Z,3.66
2018-10-17T17:06:45.832Z,3.49
2018-10-17T17:12:36.752Z,3.9
2018-10-17T17:18:27.620Z,3.54
2018-10-17T17:24:18.581Z,3.39
2018-10-17T17:30:09.462Z,2.79
2018-10-17T17:36:00.363Z,3.44
2018-10-17T17:41:51.280Z,3.05
2018-10-17T17:47:42.144Z,2.84
2018-10-17T17:53:33.071Z,3.09
2018-10-17T17:59:23.953Z,2.69
2018-10-17T18:05:14.862Z,2.54
2018-10-17T18:11:05.772Z,3.12
2018-10-17T18:16:56.652Z,3.36
2018-10-17T18:22:47.519Z,3.4
2018-10-17T18:28:38.455Z,3.74
2018-10-17T18:34:29.296Z,3.45
2018-10-17T18:40:20.228Z,3.89
2018-10-17T18:46:11.149Z,4.21
2018-10-17T18:52:01.975Z,2.87
2018-10-17T18:57:52.880Z,5.09
2018-10-17T19:03:43.803Z,5.12
2018-10-17T19:09:34.687Z,5.16
2018-10-17T19:15:25.557Z,5
2018-10-17T19:21:16.574Z,4.87
2018-10-17T19:27:07.425Z,3.56
2018-10-17T19:32:58.229Z,3.16
2018-10-17T19:38:49.176Z,3.25
2018-10-17T19:44:40.012Z,3.88
2018-10-17T19:50:30.916Z,3.38
2018-10-17T19:56:21.763Z,3.35
2018-10-17T20:02:12.736Z,4.09
2018-10-17T20:08:03.547Z,5.48
2018-10-17T20:13:54.401Z,5.08
2018-10-17T20:19:45.330Z,5.44
2018-10-17T20:25:36.208Z,5.35
2018-10-17T20:31:27.086Z,4.95
2018-10-17T20:37:17.952Z,4.62
2018-10-17T20:43:08.900Z,5.37
2018-10-17T20:48:59.772Z,4.35
2018-10-17T20:54:50.606Z,5.21
2018-10-17T21:00:41.513Z,4.02
2018-10-17T21:06:32.398Z,5.14
2018-10-17T21:12:23.313Z,4.5
2018-10-17T21:18:14.295Z,4.66
2018-10-17T21:24:05.070Z,4.61
2018-10-17T21:29:55.937Z,4.54
2018-10-17T21:35:46.871Z,4.8
2018-10-17T21:41:37.721Z,4.43
2018-10-17T21:47:28.787Z,4.4
2018-10-17T21:53:19.540Z,4.77
2018-10-17T21:59:10.369Z,4.53
2018-10-17T22:05:01.255Z,5.05
2018-10-17T22:10:52.135Z,4.62
2018-10-17T22:16:43.035Z,5.07
2018-10-17T22:22:33.947Z,5.34
2018-10-17T22:28:24.851Z,5.52
2018-10-17T22:34:15.687Z,4.85
2018-10-17T22:40:06.575Z,3.52
2018-10-17T22:45:57.449Z,3.62
2018-10-17T22:51:48.339Z,3.72
2018-10-17T22:57:39.232Z,3.75
2018-10-17T23:03:30.134Z,3.18
2018-10-17T23:09:20.987Z,3.03
2018-10-17T23:15:11.886Z,3.25
2018-10-17T23:21:02.794Z,3.49
2018-10-17T23:26:53.638Z,3.29
2018-10-17T23:32:44.529Z,3.73
2018-10-17T23:38:35.404Z,4.09
2018-10-17T23:44:26.297Z,4.09
2018-10-17T23:50:17.342Z,4.21
2018-10-17T23:56:08.203Z,4.35
